sensor_id;sensor_type;location;lat;lon;timestamp;P1;durP1;ratioP1;P2;durP2;ratioP2
60038;SDS011;45916;52.734;6.544;2022-12-07T00:01:21;8.68;;;2.90;;
60038;SDS011;45916;52.734;6.544;2022-12-07T00:03:49;8.45;;;3.15;;
60038;SDS011;45916;52.734;6.544;2022-12-07T00:06:17;8.02;;;3.45;;
60038;SDS011;45916;52.734;6.544;2022-12-07T00:08:43;7.45;;;3.42;;
60038;SDS011;45916;52.734;6.544;2022-12-07T00:11:14;8.50;;;3.60;;
60038;SDS011;45916;52.734;6.544;2022-12-07T00:13:44;7.68;;;3.17;;
60038;SDS011;45916;52.734;6.544;2022-12-07T00:16:12;6.93;;;3.38;;
60038;SDS011;45916;52.734;6.544;2022-12-07T00:18:40;6.63;;;2.97;;
60038;SDS011;45916;52.734;6.544;2022-12-07T00:21:13;8.45;;;2.83;;
60038;SDS011;45916;52.734;6.544;2022-12-07T00:23:41;9.23;;;3.30;;
60038;SDS011;45916;52.734;6.544;2022-12-07T00:26:08;8.30;;;3.45;;
60038;SDS011;45916;52.734;6.544;2022-12-07T00:28:49;7.83;;;3.83;;
60038;SDS011;45916;52.734;6.544;2022-12-07T00:31:17;9.40;;;2.70;;
60038;SDS011;45916;52.734;6.544;2022-12-07T00:33:44;8.45;;;3.00;;
60038;SDS011;45916;52.734;6.544;2022-12-07T00:36:11;8.77;;;3.38;;
60038;SDS011;45916;52.734;6.544;2022-12-07T00:38:39;9.85;;;3.47;;
60038;SDS011;45916;52.734;6.544;2022-12-07T00:41:08;6.90;;;3.38;;
60038;SDS011;45916;52.734;6.544;2022-12-07T00:43:42;8.15;;;3.88;;
60038;SDS011;45916;52.734;6.544;2022-12-07T00:46:09;12.10;;;3.58;;
60038;SDS011;45916;52.734;6.544;2022-12-07T00:48:35;10.27;;;3.75;;
60038;SDS011;45916;52.734;6.544;2022-12-07T00:51:01;7.85;;;3.70;;
60038;SDS011;45916;52.734;6.544;2022-12-07T00:53:27;10.40;;;3.45;;
60038;SDS011;45916;52.734;6.544;2022-12-07T00:55:53;9.73;;;3.63;;
60038;SDS011;45916;52.734;6.544;2022-12-07T00:58:21;12.55;;;3.60;;
60038;SDS011;45916;52.734;6.544;2022-12-07T01:00:47;10.90;;;3.53;;
60038;SDS011;45916;52.734;6.544;2022-12-07T01:03:13;8.73;;;4.07;;
60038;SDS011;45916;52.734;6.544;2022-12-07T01:05:40;8.77;;;3.25;;
60038;SDS011;45916;52.734;6.544;2022-12-07T01:08:13;8.25;;;2.95;;
60038;SDS011;45916;52.734;6.544;2022-12-07T01:10:39;12.65;;;4.18;;
60038;SDS011;45916;52.734;6.544;2022-12-07T01:13:04;8.63;;;3.63;;
60038;SDS011;45916;52.734;6.544;2022-12-07T01:15:30;9.52;;;3.70;;
60038;SDS011;45916;52.734;6.544;2022-12-07T01:17:56;11.98;;;3.80;;
60038;SDS011;45916;52.734;6.544;2022-12-07T01:20:21;9.52;;;3.58;;
60038;SDS011;45916;52.734;6.544;2022-12-07T01:22:47;10.85;;;4.10;;
60038;SDS011;45916;52.734;6.544;2022-12-07T01:25:13;8.60;;;3.50;;
60038;SDS011;45916;52.734;6.544;2022-12-07T01:27:39;10.70;;;3.47;;
60038;SDS011;45916;52.734;6.544;2022-12-07T01:30:05;10.95;;;3.42;;
60038;SDS011;45916;52.734;6.544;2022-12-07T01:32:32;7.40;;;3.05;;
60038;SDS011;45916;52.734;6.544;2022-12-07T01:34:58;9.15;;;3.70;;
60038;SDS011;45916;52.734;6.544;2022-12-07T01:37:23;8.10;;;2.80;;
60038;SDS011;45916;52.734;6.544;2022-12-07T01:39:50;10.20;;;2.75;;
60038;SDS011;45916;52.734;6.544;2022-12-07T01:42:17;8.63;;;3.05;;
60038;SDS011;45916;52.734;6.544;2022-12-07T01:47:43;8.85;;;2.60;;
60038;SDS011;45916;52.734;6.544;2022-12-07T01:50:17;8.68;;;2.78;;
60038;SDS011;45916;52.734;6.544;2022-12-07T01:52:44;7.53;;;3.00;;
60038;SDS011;45916;52.734;6.544;2022-12-07T01:55:14;7.07;;;2.88;;
60038;SDS011;45916;52.734;6.544;2022-12-07T01:57:42;9.88;;;2.97;;
60038;SDS011;45916;52.734;6.544;2022-12-07T02:00:11;7.68;;;3.53;;
60038;SDS011;45916;52.734;6.544;2022-12-07T02:02:41;11.10;;;3.85;;
60038;SDS011;45916;52.734;6.544;2022-12-07T02:05:13;9.90;;;3.05;;
60038;SDS011;45916;52.734;6.544;2022-12-07T02:07:40;9.00;;;3.28;;
60038;SDS011;45916;52.734;6.544;2022-12-07T02:10:16;11.32;;;2.75;;
60038;SDS011;45916;52.734;6.544;2022-12-07T02:13:12;9.50;;;3.25;;
60038;SDS011;45916;52.734;6.544;2022-12-07T02:27:01;8.98;;;2.60;;
60038;SDS011;45916;52.734;6.544;2022-12-07T02:29:46;10.80;;;2.90;;
60038;SDS011;45916;52.734;6.544;2022-12-07T02:35:21;8.77;;;2.67;;
60038;SDS011;45916;52.734;6.544;2022-12-07T02:40:31;10.73;;;2.47;;
60038;SDS011;45916;52.734;6.544;2022-12-07T02:43:25;11.52;;;3.00;;
60038;SDS011;45916;52.734;6.544;2022-12-07T02:45:58;8.93;;;3.10;;
60038;SDS011;45916;52.734;6.544;2022-12-07T02:48:28;5.72;;;2.15;;
60038;SDS011;45916;52.734;6.544;2022-12-07T02:50:56;6.85;;;2.50;;
60038;SDS011;45916;52.734;6.544;2022-12-07T02:53:55;9.30;;;2.78;;
60038;SDS011;45916;52.734;6.544;2022-12-07T03:05:00;9.98;;;2.45;;
60038;SDS011;45916;52.734;6.544;2022-12-07T03:07:23;9.32;;;2.80;;
60038;SDS011;45916;52.734;6.544;2022-12-07T03:12:45;9.93;;;2.88;;
60038;SDS011;45916;52.734;6.544;2022-12-07T03:15:16;10.57;;;2.17;;
60038;SDS011;45916;52.734;6.544;2022-12-07T03:17:46;10.20;;;2.35;;
60038;SDS011;45916;52.734;6.544;2022-12-07T03:22:43;6.35;;;2.15;;
60038;SDS011;45916;52.734;6.544;2022-12-07T03:25:11;8.25;;;3.00;;
60038;SDS011;45916;52.734;6.544;2022-12-07T03:30:16;9.48;;;2.53;;
60038;SDS011;45916;52.734;6.544;2022-12-07T03:35:32;9.55;;;2.30;;
60038;SDS011;45916;52.734;6.544;2022-12-07T03:38:08;8.50;;;2.60;;
60038;SDS011;45916;52.734;6.544;2022-12-07T03:40:58;12.13;;;2.78;;
60038;SDS011;45916;52.734;6.544;2022-12-07T03:43:29;9.73;;;2.35;;
60038;SDS011;45916;52.734;6.544;2022-12-07T03:51:50;9.10;;;2.58;;
60038;SDS011;45916;52.734;6.544;2022-12-07T03:54:40;10.43;;;2.30;;
60038;SDS011;45916;52.734;6.544;2022-12-07T03:57:25;8.20;;;2.28;;
60038;SDS011;45916;52.734;6.544;2022-12-07T03:59:55;8.25;;;2.03;;
60038;SDS011;45916;52.734;6.544;2022-12-07T04:02:22;6.82;;;2.08;;
60038;SDS011;45916;52.734;6.544;2022-12-07T04:04:50;7.03;;;2.45;;
60038;SDS011;45916;52.734;6.544;2022-12-07T04:07:15;10.07;;;3.08;;
60038;SDS011;45916;52.734;6.544;2022-12-07T04:09:41;6.85;;;2.22;;
60038;SDS011;45916;52.734;6.544;2022-12-07T04:12:07;9.60;;;2.40;;
60038;SDS011;45916;52.734;6.544;2022-12-07T04:14:33;6.60;;;1.90;;
60038;SDS011;45916;52.734;6.544;2022-12-07T04:16:58;7.55;;;2.63;;
60038;SDS011;45916;52.734;6.544;2022-12-07T04:19:26;9.43;;;3.08;;
60038;SDS011;45916;52.734;6.544;2022-12-07T04:21:57;8.75;;;2.25;;
60038;SDS011;45916;52.734;6.544;2022-12-07T04:24:23;6.60;;;2.13;;
60038;SDS011;45916;52.734;6.544;2022-12-07T04:26:50;6.43;;;1.75;;
60038;SDS011;45916;52.734;6.544;2022-12-07T04:29:16;8.07;;;2.10;;
60038;SDS011;45916;52.734;6.544;2022-12-07T04:31:42;8.05;;;2.00;;
60038;SDS011;45916;52.734;6.544;2022-12-07T04:34:08;9.50;;;2.10;;
60038;SDS011;45916;52.734;6.544;2022-12-07T04:36:35;7.10;;;2.30;;
60038;SDS011;45916;52.734;6.544;2022-12-07T04:39:01;7.50;;;2.25;;
60038;SDS011;45916;52.734;6.544;2022-12-07T04:41:27;8.10;;;1.90;;
60038;SDS011;45916;52.734;6.544;2022-12-07T04:46:20;6.97;;;2.28;;
60038;SDS011;45916;52.734;6.544;2022-12-07T04:48:46;8.82;;;2.20;;
60038;SDS011;45916;52.734;6.544;2022-12-07T04:51:11;8.90;;;2.45;;
60038;SDS011;45916;52.734;6.544;2022-12-07T04:53:38;8.75;;;2.30;;
60038;SDS011;45916;52.734;6.544;2022-12-07T04:56:03;10.45;;;2.40;;
60038;SDS011;45916;52.734;6.544;2022-12-07T04:58:29;8.52;;;2.30;;
60038;SDS011;45916;52.734;6.544;2022-12-07T05:00:55;10.23;;;2.30;;
60038;SDS011;45916;52.734;6.544;2022-12-07T05:03:20;9.32;;;2.13;;
60038;SDS011;45916;52.734;6.544;2022-12-07T05:05:46;11.38;;;2.58;;
60038;SDS011;45916;52.734;6.544;2022-12-07T05:08:11;8.48;;;2.40;;
60038;SDS011;45916;52.734;6.544;2022-12-07T05:10:37;10.63;;;2.53;;
60038;SDS011;45916;52.734;6.544;2022-12-07T05:13:03;10.38;;;2.10;;
60038;SDS011;45916;52.734;6.544;2022-12-07T05:15:28;6.63;;;1.55;;
60038;SDS011;45916;52.734;6.544;2022-12-07T05:17:54;10.35;;;2.25;;
60038;SDS011;45916;52.734;6.544;2022-12-07T05:20:20;10.23;;;2.15;;
60038;SDS011;45916;52.734;6.544;2022-12-07T05:22:45;9.32;;;2.20;;
60038;SDS011;45916;52.734;6.544;2022-12-07T05:25:11;7.82;;;1.67;;
60038;SDS011;45916;52.734;6.544;2022-12-07T05:27:37;9.18;;;1.90;;
60038;SDS011;45916;52.734;6.544;2022-12-07T05:30:02;7.57;;;2.13;;
60038;SDS011;45916;52.734;6.544;2022-12-07T05:32:29;10.40;;;2.70;;
60038;SDS011;45916;52.734;6.544;2022-12-07T05:34:55;13.05;;;2.35;;
60038;SDS011;45916;52.734;6.544;2022-12-07T05:37:20;7.35;;;1.92;;
60038;SDS011;45916;52.734;6.544;2022-12-07T05:39:46;9.05;;;2.50;;
60038;SDS011;45916;52.734;6.544;2022-12-07T05:42:12;13.13;;;3.20;;
60038;SDS011;45916;52.734;6.544;2022-12-07T05:44:38;8.38;;;2.60;;
60038;SDS011;45916;52.734;6.544;2022-12-07T05:47:11;11.45;;;2.95;;
60038;SDS011;45916;52.734;6.544;2022-12-07T05:49:38;8.75;;;2.70;;
60038;SDS011;45916;52.734;6.544;2022-12-07T05:52:04;5.60;;;2.08;;
60038;SDS011;45916;52.734;6.544;2022-12-07T05:54:30;11.45;;;3.30;;
60038;SDS011;45916;52.734;6.544;2022-12-07T05:56:56;6.80;;;2.65;;
60038;SDS011;45916;52.734;6.544;2022-12-07T05:59:22;8.57;;;3.03;;
60038;SDS011;45916;52.734;6.544;2022-12-07T06:01:49;10.48;;;3.20;;
60038;SDS011;45916;52.734;6.544;2022-12-07T06:04:15;6.68;;;3.10;;
60038;SDS011;45916;52.734;6.544;2022-12-07T06:06:42;9.63;;;3.13;;
60038;SDS011;45916;52.734;6.544;2022-12-07T06:09:08;8.45;;;3.15;;
60038;SDS011;45916;52.734;6.544;2022-12-07T06:11:34;9.70;;;3.17;;
60038;SDS011;45916;52.734;6.544;2022-12-07T06:14:18;9.15;;;3.10;;
60038;SDS011;45916;52.734;6.544;2022-12-07T06:16:44;7.97;;;2.63;;
60038;SDS011;45916;52.734;6.544;2022-12-07T06:19:09;7.93;;;3.03;;
60038;SDS011;45916;52.734;6.544;2022-12-07T06:21:35;8.40;;;2.53;;
60038;SDS011;45916;52.734;6.544;2022-12-07T06:24:01;7.50;;;2.40;;
60038;SDS011;45916;52.734;6.544;2022-12-07T06:26:27;6.45;;;2.50;;
60038;SDS011;45916;52.734;6.544;2022-12-07T06:28:52;10.57;;;3.28;;
60038;SDS011;45916;52.734;6.544;2022-12-07T06:31:18;11.05;;;2.67;;
60038;SDS011;45916;52.734;6.544;2022-12-07T06:33:44;7.32;;;2.00;;
60038;SDS011;45916;52.734;6.544;2022-12-07T06:36:10;8.73;;;2.70;;
60038;SDS011;45916;52.734;6.544;2022-12-07T06:38:35;7.65;;;2.28;;
60038;SDS011;45916;52.734;6.544;2022-12-07T06:41:01;9.95;;;2.47;;
60038;SDS011;45916;52.734;6.544;2022-12-07T06:43:27;9.45;;;2.15;;
60038;SDS011;45916;52.734;6.544;2022-12-07T06:45:53;9.10;;;2.25;;
60038;SDS011;45916;52.734;6.544;2022-12-07T06:48:19;6.13;;;1.77;;
60038;SDS011;45916;52.734;6.544;2022-12-07T06:50:45;6.72;;;2.42;;
60038;SDS011;45916;52.734;6.544;2022-12-07T06:53:11;9.43;;;2.03;;
60038;SDS011;45916;52.734;6.544;2022-12-07T06:55:37;8.15;;;1.70;;
60038;SDS011;45916;52.734;6.544;2022-12-07T06:58:02;8.13;;;2.20;;
60038;SDS011;45916;52.734;6.544;2022-12-07T07:00:28;8.85;;;2.03;;
60038;SDS011;45916;52.734;6.544;2022-12-07T07:02:54;8.50;;;2.13;;
60038;SDS011;45916;52.734;6.544;2022-12-07T07:05:20;10.55;;;3.08;;
60038;SDS011;45916;52.734;6.544;2022-12-07T07:07:49;11.13;;;2.45;;
60038;SDS011;45916;52.734;6.544;2022-12-07T07:10:15;6.78;;;2.13;;
60038;SDS011;45916;52.734;6.544;2022-12-07T07:12:41;9.32;;;2.63;;
60038;SDS011;45916;52.734;6.544;2022-12-07T07:15:07;9.68;;;2.50;;
60038;SDS011;45916;52.734;6.544;2022-12-07T07:17:33;11.35;;;2.63;;
60038;SDS011;45916;52.734;6.544;2022-12-07T07:19:58;6.40;;;2.05;;
60038;SDS011;45916;52.734;6.544;2022-12-07T07:22:24;8.25;;;2.42;;
60038;SDS011;45916;52.734;6.544;2022-12-07T07:24:49;6.93;;;2.53;;
60038;SDS011;45916;52.734;6.544;2022-12-07T07:27:15;9.10;;;2.85;;
60038;SDS011;45916;52.734;6.544;2022-12-07T07:29:41;7.80;;;2.50;;
60038;SDS011;45916;52.734;6.544;2022-12-07T07:32:07;7.75;;;2.50;;
60038;SDS011;45916;52.734;6.544;2022-12-07T07:34:33;11.70;;;2.95;;
60038;SDS011;45916;52.734;6.544;2022-12-07T07:36:59;7.18;;;1.95;;
60038;SDS011;45916;52.734;6.544;2022-12-07T07:39:24;9.00;;;1.60;;
60038;SDS011;45916;52.734;6.544;2022-12-07T07:41:50;7.70;;;2.50;;
60038;SDS011;45916;52.734;6.544;2022-12-07T07:44:16;11.18;;;3.17;;
60038;SDS011;45916;52.734;6.544;2022-12-07T07:46:41;13.02;;;2.78;;
60038;SDS011;45916;52.734;6.544;2022-12-07T07:49:08;11.43;;;3.00;;
60038;SDS011;45916;52.734;6.544;2022-12-07T07:51:35;7.72;;;3.03;;
60038;SDS011;45916;52.734;6.544;2022-12-07T07:54:01;10.05;;;2.78;;
60038;SDS011;45916;52.734;6.544;2022-12-07T07:56:27;9.45;;;3.03;;
60038;SDS011;45916;52.734;6.544;2022-12-07T07:58:52;7.88;;;3.17;;
60038;SDS011;45916;52.734;6.544;2022-12-07T08:01:19;9.40;;;3.72;;
60038;SDS011;45916;52.734;6.544;2022-12-07T08:03:45;9.65;;;2.90;;
60038;SDS011;45916;52.734;6.544;2022-12-07T08:06:12;7.55;;;2.85;;
60038;SDS011;45916;52.734;6.544;2022-12-07T08:08:38;9.15;;;2.40;;
60038;SDS011;45916;52.734;6.544;2022-12-07T08:11:07;9.15;;;2.38;;
60038;SDS011;45916;52.734;6.544;2022-12-07T08:13:34;11.82;;;2.40;;
60038;SDS011;45916;52.734;6.544;2022-12-07T08:16:03;7.75;;;2.15;;
60038;SDS011;45916;52.734;6.544;2022-12-07T08:18:37;5.28;;;1.70;;
60038;SDS011;45916;52.734;6.544;2022-12-07T08:21:04;5.78;;;1.98;;
60038;SDS011;45916;52.734;6.544;2022-12-07T08:23:32;9.52;;;2.60;;
60038;SDS011;45916;52.734;6.544;2022-12-07T08:26:06;8.82;;;3.08;;
60038;SDS011;45916;52.734;6.544;2022-12-07T08:28:34;9.35;;;2.72;;
60038;SDS011;45916;52.734;6.544;2022-12-07T08:31:05;10.02;;;3.13;;
60038;SDS011;45916;52.734;6.544;2022-12-07T08:33:32;8.32;;;3.25;;
60038;SDS011;45916;52.734;6.544;2022-12-07T08:36:02;8.43;;;3.60;;
60038;SDS011;45916;52.734;6.544;2022-12-07T08:38:29;11.23;;;3.28;;
60038;SDS011;45916;52.734;6.544;2022-12-07T08:40:56;8.20;;;3.47;;
60038;SDS011;45916;52.734;6.544;2022-12-07T08:43:22;10.52;;;3.65;;
60038;SDS011;45916;52.734;6.544;2022-12-07T08:45:50;12.23;;;3.60;;
60038;SDS011;45916;52.734;6.544;2022-12-07T08:48:30;8.52;;;3.55;;
60038;SDS011;45916;52.734;6.544;2022-12-07T08:50:57;11.85;;;4.20;;
60038;SDS011;45916;52.734;6.544;2022-12-07T08:53:23;8.65;;;3.03;;
60038;SDS011;45916;52.734;6.544;2022-12-07T08:55:49;7.38;;;2.40;;
60038;SDS011;45916;52.734;6.544;2022-12-07T08:58:15;8.48;;;3.25;;
60038;SDS011;45916;52.734;6.544;2022-12-07T09:00:41;8.48;;;2.40;;
60038;SDS011;45916;52.734;6.544;2022-12-07T09:03:07;7.95;;;3.08;;
60038;SDS011;45916;52.734;6.544;2022-12-07T09:05:32;8.27;;;2.35;;
60038;SDS011;45916;52.734;6.544;2022-12-07T09:07:59;7.80;;;2.60;;
60038;SDS011;45916;52.734;6.544;2022-12-07T09:10:26;8.70;;;2.20;;
60038;SDS011;45916;52.734;6.544;2022-12-07T09:12:52;7.80;;;2.95;;
60038;SDS011;45916;52.734;6.544;2022-12-07T09:15:18;9.75;;;3.15;;
60038;SDS011;45916;52.734;6.544;2022-12-07T09:17:44;8.00;;;2.35;;
60038;SDS011;45916;52.734;6.544;2022-12-07T09:20:10;7.65;;;2.30;;
60038;SDS011;45916;52.734;6.544;2022-12-07T09:22:36;8.40;;;2.60;;
60038;SDS011;45916;52.734;6.544;2022-12-07T09:25:03;7.32;;;2.38;;
60038;SDS011;45916;52.734;6.544;2022-12-07T09:27:29;5.85;;;2.40;;
60038;SDS011;45916;52.734;6.544;2022-12-07T09:29:55;6.05;;;2.83;;
60038;SDS011;45916;52.734;6.544;2022-12-07T09:32:21;9.63;;;2.40;;
60038;SDS011;45916;52.734;6.544;2022-12-07T09:34:47;8.85;;;2.60;;
60038;SDS011;45916;52.734;6.544;2022-12-07T09:37:12;8.00;;;2.20;;
60038;SDS011;45916;52.734;6.544;2022-12-07T09:39:39;7.82;;;2.40;;
60038;SDS011;45916;52.734;6.544;2022-12-07T09:42:05;8.23;;;2.40;;
60038;SDS011;45916;52.734;6.544;2022-12-07T09:44:33;9.20;;;2.53;;
60038;SDS011;45916;52.734;6.544;2022-12-07T09:47:00;9.13;;;3.08;;
60038;SDS011;45916;52.734;6.544;2022-12-07T09:49:28;7.05;;;2.25;;
60038;SDS011;45916;52.734;6.544;2022-12-07T09:52:03;8.10;;;2.40;;
60038;SDS011;45916;52.734;6.544;2022-12-07T09:54:50;8.52;;;2.63;;
60038;SDS011;45916;52.734;6.544;2022-12-07T09:57:16;8.88;;;2.58;;
60038;SDS011;45916;52.734;6.544;2022-12-07T09:59:44;6.35;;;2.10;;
60038;SDS011;45916;52.734;6.544;2022-12-07T10:04:57;6.57;;;2.05;;
60038;SDS011;45916;52.734;6.544;2022-12-07T10:07:24;7.35;;;2.92;;
60038;SDS011;45916;52.734;6.544;2022-12-07T10:09:49;9.52;;;2.33;;
60038;SDS011;45916;52.734;6.544;2022-12-07T10:12:15;8.40;;;2.28;;
60038;SDS011;45916;52.734;6.544;2022-12-07T10:17:31;9.32;;;2.33;;
60038;SDS011;45916;52.734;6.544;2022-12-07T10:20:13;7.32;;;2.13;;
60038;SDS011;45916;52.734;6.544;2022-12-07T10:22:57;5.20;;;2.20;;
60038;SDS011;45916;52.734;6.544;2022-12-07T10:25:35;8.77;;;2.65;;
60038;SDS011;45916;52.734;6.544;2022-12-07T10:31:16;8.27;;;2.50;;
60038;SDS011;45916;52.734;6.544;2022-12-07T10:33:59;6.18;;;1.85;;
60038;SDS011;45916;52.734;6.544;2022-12-07T10:38:58;8.73;;;2.17;;
60038;SDS011;45916;52.734;6.544;2022-12-07T10:41:26;6.38;;;2.45;;
60038;SDS011;45916;52.734;6.544;2022-12-07T10:43:54;4.70;;;2.22;;
60038;SDS011;45916;52.734;6.544;2022-12-07T10:51:46;8.60;;;2.72;;
60038;SDS011;45916;52.734;6.544;2022-12-07T10:54:48;10.37;;;2.03;;
60038;SDS011;45916;52.734;6.544;2022-12-07T11:00:04;7.35;;;2.13;;
60038;SDS011;45916;52.734;6.544;2022-12-07T11:08:17;6.30;;;2.45;;
60038;SDS011;45916;52.734;6.544;2022-12-07T11:10:59;8.93;;;2.50;;
60038;SDS011;45916;52.734;6.544;2022-12-07T11:19:09;7.93;;;2.05;;
60038;SDS011;45916;52.734;6.544;2022-12-07T11:22:09;5.97;;;1.90;;
60038;SDS011;45916;52.734;6.544;2022-12-07T11:24:56;6.85;;;1.85;;
60038;SDS011;45916;52.734;6.544;2022-12-07T11:33:43;7.40;;;2.60;;
60038;SDS011;45916;52.734;6.544;2022-12-07T11:47:48;6.32;;;2.13;;
60038;SDS011;45916;52.734;6.544;2022-12-07T11:50:34;10.18;;;2.40;;
60038;SDS011;45916;52.734;6.544;2022-12-07T11:53:44;9.82;;;2.47;;
60038;SDS011;45916;52.734;6.544;2022-12-07T11:56:21;8.50;;;2.20;;
60038;SDS011;45916;52.734;6.544;2022-12-07T11:58:52;8.13;;;2.58;;
60038;SDS011;45916;52.734;6.544;2022-12-07T12:06:24;9.10;;;1.85;;
60038;SDS011;45916;52.734;6.544;2022-12-07T12:08:53;8.32;;;2.10;;
60038;SDS011;45916;52.734;6.544;2022-12-07T12:16:59;7.97;;;2.85;;
60038;SDS011;45916;52.734;6.544;2022-12-07T12:22:11;9.90;;;3.28;;
60038;SDS011;45916;52.734;6.544;2022-12-07T12:24:38;8.60;;;2.38;;
60038;SDS011;45916;52.734;6.544;2022-12-07T12:27:07;7.35;;;2.25;;
60038;SDS011;45916;52.734;6.544;2022-12-07T12:29:41;8.52;;;1.98;;
60038;SDS011;45916;52.734;6.544;2022-12-07T12:32:13;10.10;;;2.97;;
60038;SDS011;45916;52.734;6.544;2022-12-07T12:42:48;8.52;;;2.35;;
60038;SDS011;45916;52.734;6.544;2022-12-07T12:45:21;7.43;;;2.17;;
60038;SDS011;45916;52.734;6.544;2022-12-07T12:48:26;6.00;;;2.05;;
60038;SDS011;45916;52.734;6.544;2022-12-07T12:54:04;7.15;;;2.20;;
60038;SDS011;45916;52.734;6.544;2022-12-07T13:01:46;7.55;;;2.25;;
60038;SDS011;45916;52.734;6.544;2022-12-07T13:04:56;6.97;;;2.38;;
60038;SDS011;45916;52.734;6.544;2022-12-07T13:07:51;5.72;;;1.92;;
60038;SDS011;45916;52.734;6.544;2022-12-07T13:12:59;8.95;;;2.35;;
60038;SDS011;45916;52.734;6.544;2022-12-07T13:20:53;7.95;;;2.13;;
60038;SDS011;45916;52.734;6.544;2022-12-07T13:23:23;8.75;;;2.25;;
60038;SDS011;45916;52.734;6.544;2022-12-07T13:31:20;8.98;;;2.15;;
60038;SDS011;45916;52.734;6.544;2022-12-07T13:33:57;9.10;;;2.58;;
60038;SDS011;45916;52.734;6.544;2022-12-07T13:36:27;8.00;;;2.03;;
60038;SDS011;45916;52.734;6.544;2022-12-07T13:39:01;9.80;;;2.37;;
60038;SDS011;45916;52.734;6.544;2022-12-07T13:41:42;7.75;;;2.35;;
60038;SDS011;45916;52.734;6.544;2022-12-07T13:44:09;8.75;;;2.00;;
60038;SDS011;45916;52.734;6.544;2022-12-07T13:49:30;8.77;;;2.00;;
60038;SDS011;45916;52.734;6.544;2022-12-07T13:52:15;6.65;;;1.85;;
60038;SDS011;45916;52.734;6.544;2022-12-07T13:54:54;7.32;;;2.10;;
60038;SDS011;45916;52.734;6.544;2022-12-07T13:57:26;8.70;;;1.92;;
60038;SDS011;45916;52.734;6.544;2022-12-07T13:59:55;7.55;;;1.85;;
60038;SDS011;45916;52.734;6.544;2022-12-07T14:02:26;8.88;;;1.80;;
60038;SDS011;45916;52.734;6.544;2022-12-07T14:07:57;4.28;;;1.77;;
60038;SDS011;45916;52.734;6.544;2022-12-07T14:10:36;7.38;;;1.80;;
60038;SDS011;45916;52.734;6.544;2022-12-07T14:18:51;10.15;;;2.90;;
60038;SDS011;45916;52.734;6.544;2022-12-07T14:21:18;7.32;;;2.50;;
60038;SDS011;45916;52.734;6.544;2022-12-07T14:26:34;9.60;;;2.17;;
60038;SDS011;45916;52.734;6.544;2022-12-07T14:31:52;5.63;;;2.10;;
60038;SDS011;45916;52.734;6.544;2022-12-07T14:34:20;8.80;;;2.33;;
60038;SDS011;45916;52.734;6.544;2022-12-07T14:36:47;11.05;;;2.08;;
60038;SDS011;45916;52.734;6.544;2022-12-07T14:39:12;8.63;;;2.40;;
60038;SDS011;45916;52.734;6.544;2022-12-07T14:41:38;6.88;;;1.88;;
60038;SDS011;45916;52.734;6.544;2022-12-07T14:44:16;6.07;;;2.20;;
60038;SDS011;45916;52.734;6.544;2022-12-07T14:46:43;8.35;;;2.38;;
60038;SDS011;45916;52.734;6.544;2022-12-07T14:49:09;6.47;;;2.33;;
60038;SDS011;45916;52.734;6.544;2022-12-07T14:51:36;8.00;;;2.60;;
60038;SDS011;45916;52.734;6.544;2022-12-07T14:54:05;8.75;;;2.30;;
60038;SDS011;45916;52.734;6.544;2022-12-07T14:56:36;7.10;;;2.70;;
60038;SDS011;45916;52.734;6.544;2022-12-07T14:59:02;8.30;;;3.25;;
60038;SDS011;45916;52.734;6.544;2022-12-07T15:01:27;8.52;;;3.22;;
60038;SDS011;45916;52.734;6.544;2022-12-07T15:03:53;8.23;;;2.97;;
60038;SDS011;45916;52.734;6.544;2022-12-07T15:06:19;8.07;;;2.90;;
60038;SDS011;45916;52.734;6.544;2022-12-07T15:08:44;6.15;;;2.08;;
60038;SDS011;45916;52.734;6.544;2022-12-07T15:11:14;6.35;;;2.15;;
60038;SDS011;45916;52.734;6.544;2022-12-07T15:13:41;8.00;;;2.17;;
60038;SDS011;45916;52.734;6.544;2022-12-07T15:16:26;7.13;;;2.22;;
60038;SDS011;45916;52.734;6.544;2022-12-07T15:18:52;5.70;;;1.98;;
60038;SDS011;45916;52.734;6.544;2022-12-07T15:21:17;6.95;;;2.25;;
60038;SDS011;45916;52.734;6.544;2022-12-07T15:23:43;9.38;;;2.42;;
60038;SDS011;45916;52.734;6.544;2022-12-07T15:26:10;8.48;;;2.60;;
60038;SDS011;45916;52.734;6.544;2022-12-07T15:28:36;7.15;;;2.08;;
60038;SDS011;45916;52.734;6.544;2022-12-07T15:31:02;6.10;;;2.08;;
60038;SDS011;45916;52.734;6.544;2022-12-07T15:33:28;7.82;;;1.77;;
60038;SDS011;45916;52.734;6.544;2022-12-07T15:35:53;5.38;;;1.85;;
60038;SDS011;45916;52.734;6.544;2022-12-07T15:38:19;4.55;;;1.70;;
60038;SDS011;45916;52.734;6.544;2022-12-07T15:40:48;8.57;;;2.92;;
60038;SDS011;45916;52.734;6.544;2022-12-07T15:43:14;6.05;;;1.83;;
60038;SDS011;45916;52.734;6.544;2022-12-07T15:45:58;5.28;;;2.63;;
60038;SDS011;45916;52.734;6.544;2022-12-07T15:48:24;6.43;;;1.45;;
60038;SDS011;45916;52.734;6.544;2022-12-07T15:50:50;6.63;;;2.03;;
60038;SDS011;45916;52.734;6.544;2022-12-07T15:53:15;4.57;;;1.65;;
60038;SDS011;45916;52.734;6.544;2022-12-07T15:55:41;7.13;;;1.95;;
60038;SDS011;45916;52.734;6.544;2022-12-07T15:58:07;6.53;;;2.00;;
60038;SDS011;45916;52.734;6.544;2022-12-07T16:00:33;4.32;;;1.80;;
60038;SDS011;45916;52.734;6.544;2022-12-07T16:02:58;7.68;;;2.58;;
60038;SDS011;45916;52.734;6.544;2022-12-07T16:05:24;6.78;;;3.03;;
60038;SDS011;45916;52.734;6.544;2022-12-07T16:07:49;9.50;;;4.47;;
60038;SDS011;45916;52.734;6.544;2022-12-07T16:10:15;8.30;;;3.55;;
60038;SDS011;45916;52.734;6.544;2022-12-07T16:12:41;8.15;;;3.03;;
60038;SDS011;45916;52.734;6.544;2022-12-07T16:15:07;5.85;;;2.90;;
60038;SDS011;45916;52.734;6.544;2022-12-07T16:17:33;6.93;;;4.10;;
60038;SDS011;45916;52.734;6.544;2022-12-07T16:19:59;7.07;;;4.07;;
60038;SDS011;45916;52.734;6.544;2022-12-07T16:22:25;10.25;;;4.38;;
60038;SDS011;45916;52.734;6.544;2022-12-07T16:24:50;8.10;;;3.38;;
60038;SDS011;45916;52.734;6.544;2022-12-07T16:27:16;7.47;;;4.00;;
60038;SDS011;45916;52.734;6.544;2022-12-07T16:29:41;6.38;;;3.28;;
60038;SDS011;45916;52.734;6.544;2022-12-07T16:32:07;7.18;;;3.20;;
60038;SDS011;45916;52.734;6.544;2022-12-07T16:34:33;5.07;;;2.70;;
60038;SDS011;45916;52.734;6.544;2022-12-07T16:36:59;6.90;;;3.25;;
60038;SDS011;45916;52.734;6.544;2022-12-07T16:39:24;7.28;;;3.08;;
60038;SDS011;45916;52.734;6.544;2022-12-07T16:41:50;5.30;;;3.28;;
60038;SDS011;45916;52.734;6.544;2022-12-07T16:44:17;9.13;;;4.05;;
60038;SDS011;45916;52.734;6.544;2022-12-07T16:46:43;7.20;;;3.25;;
60038;SDS011;45916;52.734;6.544;2022-12-07T16:49:13;8.05;;;3.80;;
60038;SDS011;45916;52.734;6.544;2022-12-07T16:51:39;9.02;;;4.15;;
60038;SDS011;45916;52.734;6.544;2022-12-07T16:54:06;6.50;;;3.70;;
60038;SDS011;45916;52.734;6.544;2022-12-07T16:56:31;5.70;;;2.58;;
60038;SDS011;45916;52.734;6.544;2022-12-07T16:58:58;7.07;;;2.88;;
60038;SDS011;45916;52.734;6.544;2022-12-07T17:01:24;6.93;;;2.58;;
60038;SDS011;45916;52.734;6.544;2022-12-07T17:03:51;4.85;;;2.55;;
60038;SDS011;45916;52.734;6.544;2022-12-07T17:06:18;5.72;;;3.28;;
60038;SDS011;45916;52.734;6.544;2022-12-07T17:08:46;4.32;;;2.25;;
60038;SDS011;45916;52.734;6.544;2022-12-07T17:11:14;4.78;;;2.28;;
60038;SDS011;45916;52.734;6.544;2022-12-07T17:13:44;6.47;;;2.90;;
60038;SDS011;45916;52.734;6.544;2022-12-07T17:16:29;8.73;;;2.67;;
60038;SDS011;45916;52.734;6.544;2022-12-07T17:18:55;8.07;;;2.92;;
60038;SDS011;45916;52.734;6.544;2022-12-07T17:21:21;6.18;;;3.00;;
60038;SDS011;45916;52.734;6.544;2022-12-07T17:23:47;7.78;;;3.20;;
60038;SDS011;45916;52.734;6.544;2022-12-07T17:26:15;6.45;;;2.70;;
60038;SDS011;45916;52.734;6.544;2022-12-07T17:28:45;7.50;;;3.75;;
60038;SDS011;45916;52.734;6.544;2022-12-07T17:31:13;6.47;;;3.50;;
60038;SDS011;45916;52.734;6.544;2022-12-07T17:33:40;8.65;;;3.80;;